createdAt,value
2023-04-10T00:00:57.128Z,11.38
2023-04-10T00:03:24.687Z,10.52
2023-04-10T00:05:51.564Z,9.90
2023-04-10T00:08:18.176Z,10.82
2023-04-10T00:10:44.726Z,9.32
2023-04-10T00:13:12.320Z,9.07
2023-04-10T00:15:38.913Z,9.82
2023-04-10T00:18:05.535Z,9.35
2023-04-10T00:20:32.096Z,10.90
2023-04-10T00:22:58.756Z,8.75
2023-04-10T00:25:26.585Z,9.05
2023-04-10T00:27:54.261Z,9.88
2023-04-10T00:30:21.635Z,8.68
2023-04-10T00:32:48.186Z,10.88
2023-04-10T00:35:14.762Z,9.43
2023-04-10T00:37:43.583Z,12.38
2023-04-10T00:40:10.446Z,8.25
2023-04-10T00:42:37.355Z,8.07
2023-04-10T00:45:04.266Z,9.82
2023-04-10T00:47:31.595Z,9.98
2023-04-10T00:49:58.511Z,10.35
2023-04-10T00:52:26.179Z,10.38
2023-04-10T00:54:52.764Z,9.07
2023-04-10T00:57:19.389Z,11.98
2023-04-10T00:59:46.464Z,9.93
2023-04-10T01:02:13.449Z,8.82
2023-04-10T01:04:41.030Z,9.95
2023-04-10T01:07:32.176Z,8.63
2023-04-10T01:10:19.685Z,8.87
2023-04-10T01:13:21.936Z,10.73
2023-04-10T01:16:14.454Z,10.25
2023-04-10T01:18:48.537Z,10.02
2023-04-10T01:21:17.170Z,9.93
2023-04-10T01:24:07.912Z,10.18
2023-04-10T01:26:53.804Z,9.45
2023-04-10T01:29:21.136Z,9.25
2023-04-10T01:31:55.177Z,9.18
2023-04-10T01:34:25.604Z,8.77
2023-04-10T01:36:59.840Z,9.18
2023-04-10T01:39:29.053Z,9.07
2023-04-10T01:41:59.893Z,9.93
2023-04-10T01:44:38.063Z,8.95
2023-04-10T01:47:07.229Z,10.10
2023-04-10T01:49:42.526Z,8.38
2023-04-10T01:52:11.124Z,6.68
2023-04-10T01:54:39.024Z,10.63
2023-04-10T01:57:06.418Z,7.85
2023-04-10T01:59:41.061Z,9.02
2023-04-10T02:02:11.715Z,8.10
2023-04-10T02:04:39.376Z,8.15
2023-04-10T02:07:16.684Z,8.93
2023-04-10T02:09:54.544Z,8.30
2023-04-10T02:12:30.310Z,9.15
2023-04-10T02:15:01.272Z,8.38
2023-04-10T02:17:29.657Z,10.65
2023-04-10T02:19:57.250Z,8.02
2023-04-10T02:22:25.558Z,8.25
2023-04-10T02:24:55.349Z,8.60
2023-04-10T02:27:31.028Z,9.25
2023-04-10T02:29:59.027Z,8.45
2023-04-10T02:32:27.213Z,7.82
2023-04-10T02:34:55.430Z,8.20
2023-04-10T02:37:22.274Z,6.93
2023-04-10T02:39:50.183Z,8.20
2023-04-10T02:42:17.155Z,7.55
2023-04-10T02:44:44.633Z,8.70
2023-04-10T02:47:13.803Z,8.18
2023-04-10T02:49:47.017Z,7.30
2023-04-10T02:52:16.521Z,6.57
2023-04-10T02:54:43.321Z,7.85
2023-04-10T02:57:09.986Z,8.10
2023-04-10T02:59:36.603Z,6.80
2023-04-10T03:02:05.386Z,8.77
2023-04-10T03:04:35.542Z,8.32
2023-04-10T03:07:02.331Z,8.55
2023-04-10T03:09:29.111Z,7.22
2023-04-10T03:11:55.660Z,6.72
2023-04-10T03:14:22.263Z,7.82
2023-04-10T03:16:48.972Z,6.95
2023-04-10T03:19:17.702Z,7.15
2023-04-10T03:21:46.272Z,6.93
2023-04-10T03:24:13.093Z,7.85
2023-04-10T03:26:43.347Z,7.47
2023-04-10T03:29:10.436Z,8.00
2023-04-10T03:31:37.449Z,9.05
2023-04-10T03:34:04.208Z,8.65
2023-04-10T03:36:31.556Z,7.50
2023-04-10T03:38:58.106Z,7.85
2023-04-10T03:41:27.632Z,7.07
2023-04-10T03:43:54.771Z,7.80
2023-04-10T03:46:22.724Z,6.93
2023-04-10T03:48:51.162Z,7.10
2023-04-10T03:51:18.245Z,7.68
2023-04-10T03:53:46.099Z,8.52
2023-04-10T03:56:18.789Z,7.32
2023-04-10T03:58:49.070Z,7.93
2023-04-10T04:01:15.727Z,7.10
2023-04-10T04:03:59.739Z,7.82
2023-04-10T04:07:02.395Z,7.72
2023-04-10T04:09:44.717Z,8.02
2023-04-10T04:12:22.385Z,7.28
2023-04-10T04:15:02.540Z,6.90
2023-04-10T04:17:47.738Z,8.07
2023-04-10T04:20:35.013Z,7.03
2023-04-10T04:23:01.753Z,8.43
2023-04-10T04:25:52.765Z,7.90
2023-04-10T04:28:19.375Z,6.85
2023-04-10T04:30:57.045Z,8.45
2023-04-10T04:33:46.521Z,6.75
2023-04-10T04:36:31.716Z,6.80
2023-04-10T04:39:10.963Z,8.57
2023-04-10T04:41:51.640Z,7.50
2023-04-10T04:44:32.073Z,5.95
2023-04-10T04:47:05.560Z,6.60
2023-04-10T04:49:51.631Z,6.93
2023-04-10T04:52:44.406Z,6.32
2023-04-10T04:55:31.829Z,7.00
2023-04-10T04:58:28.051Z,6.68
2023-04-10T05:01:22.019Z,6.93
2023-04-10T05:04:10.025Z,6.93
2023-04-10T05:07:05.701Z,7.00
2023-04-10T05:09:47.125Z,5.65
2023-04-10T05:12:35.042Z,7.03
2023-04-10T05:15:22.087Z,7.45
2023-04-10T05:18:19.693Z,6.78
2023-04-10T05:21:18.729Z,8.75
2023-04-10T05:24:02.710Z,6.05
2023-04-10T05:26:38.284Z,7.63
2023-04-10T05:29:31.147Z,7.40
2023-04-10T05:32:09.792Z,6.85
2023-04-10T05:34:59.789Z,6.60
2023-04-10T05:37:38.131Z,5.43
2023-04-10T05:40:21.372Z,7.45
2023-04-10T05:43:09.906Z,6.82
2023-04-10T05:45:55.733Z,8.40
2023-04-10T05:48:45.993Z,7.28
2023-04-10T05:51:20.789Z,7.45
2023-04-10T05:54:07.719Z,9.45
2023-04-10T05:57:06.682Z,7.80
2023-04-10T06:00:04.927Z,6.43
2023-04-10T06:02:43.243Z,8.02
2023-04-10T06:05:18.692Z,6.53
2023-04-10T06:07:45.899Z,10.13
2023-04-10T06:10:14.817Z,7.13
2023-04-10T06:12:41.652Z,5.50
2023-04-10T06:15:10.906Z,7.20
2023-04-10T06:17:44.270Z,7.68
2023-04-10T06:20:11.226Z,6.72
2023-04-10T06:22:37.890Z,8.80
2023-04-10T06:25:06.075Z,8.38
2023-04-10T06:27:35.375Z,7.45
2023-04-10T06:30:02.398Z,8.35
2023-04-10T06:32:32.689Z,7.75
2023-04-10T06:35:00.734Z,10.48
2023-04-10T06:37:31.814Z,6.13
2023-04-10T06:40:10.157Z,6.53
2023-04-10T06:42:39.933Z,6.05
2023-04-10T06:45:12.736Z,8.73
2023-04-10T06:47:39.476Z,7.68
2023-04-10T06:50:06.266Z,6.55
2023-04-10T06:52:32.864Z,5.03
2023-04-10T06:55:00.008Z,4.05
2023-04-10T06:57:26.705Z,4.68
2023-04-10T06:59:53.822Z,3.78
2023-04-10T07:02:21.017Z,6.13
2023-04-10T07:04:47.907Z,4.47
2023-04-10T07:07:16.265Z,4.13
2023-04-10T07:09:43.754Z,5.22
2023-04-10T07:12:10.496Z,3.90
2023-04-10T07:14:37.086Z,3.72
2023-04-10T07:17:07.085Z,4.45
2023-04-10T07:19:37.820Z,5.57
2023-04-10T07:22:07.414Z,6.32
2023-04-10T07:24:34.173Z,5.55
2023-04-10T07:27:01.930Z,4.35
2023-04-10T07:29:30.039Z,3.55
2023-04-10T07:32:02.541Z,4.45
2023-04-10T07:34:31.814Z,4.30
2023-04-10T07:36:58.829Z,4.03
2023-04-10T07:39:27.177Z,4.50
2023-04-10T07:41:55.460Z,3.65
2023-04-10T07:44:22.308Z,4.28
2023-04-10T07:46:49.053Z,3.78
2023-04-10T07:49:15.752Z,4.38
2023-04-10T07:51:45.376Z,3.63
2023-04-10T07:54:14.226Z,3.28
2023-04-10T07:56:41.021Z,4.03
2023-04-10T07:59:08.268Z,3.60
2023-04-10T08:01:35.592Z,3.42
2023-04-10T08:04:05.567Z,4.38
2023-04-10T08:06:33.419Z,3.50
2023-04-10T08:09:01.715Z,4.05
2023-04-10T08:11:38.338Z,2.67
2023-04-10T08:14:07.005Z,3.08
2023-04-10T08:16:35.661Z,3.78
2023-04-10T08:19:02.948Z,2.55
2023-04-10T08:21:32.058Z,2.92
2023-04-10T08:24:00.857Z,2.10
2023-04-10T08:26:28.230Z,2.22
2023-04-10T08:28:57.506Z,2.00
2023-04-10T08:31:26.713Z,2.13
2023-04-10T08:33:55.008Z,3.55
2023-04-10T08:36:22.445Z,2.58
2023-04-10T08:38:49.302Z,2.33
2023-04-10T08:41:17.577Z,1.90
2023-04-10T08:43:46.989Z,2.20
2023-04-10T08:46:16.724Z,2.28
2023-04-10T08:48:53.306Z,3.45
2023-04-10T08:51:26.087Z,2.58
2023-04-10T08:54:00.782Z,2.33
2023-04-10T08:56:28.209Z,2.65
2023-04-10T08:58:57.815Z,4.10
2023-04-10T09:01:26.052Z,2.25
2023-04-10T09:03:53.040Z,2.13
2023-04-10T09:06:19.720Z,2.47
2023-04-10T09:08:48.610Z,1.60
2023-04-10T09:11:15.574Z,1.92
2023-04-10T09:13:44.888Z,6.53
2023-04-10T09:16:14.925Z,2.00
2023-04-10T09:18:50.666Z,2.53
2023-04-10T09:21:19.504Z,2.25
2023-04-10T09:23:47.412Z,1.90
2023-04-10T09:26:30.562Z,1.50
2023-04-10T09:29:05.710Z,2.92
2023-04-10T09:31:35.172Z,2.80
2023-04-10T09:34:23.553Z,2.38
2023-04-10T09:36:57.985Z,1.25
2023-04-10T09:39:43.259Z,1.70
2023-04-10T09:42:11.546Z,1.58
2023-04-10T09:44:39.794Z,2.00
2023-04-10T09:47:22.412Z,1.60
2023-04-10T09:49:54.223Z,1.38
2023-04-10T09:52:30.709Z,1.67
2023-04-10T09:55:05.124Z,1.88
2023-04-10T09:57:33.776Z,1.40
2023-04-10T10:00:03.623Z,1.88
2023-04-10T10:02:37.251Z,0.90
2023-04-10T10:05:05.289Z,2.38
2023-04-10T10:07:32.606Z,1.50
2023-04-10T10:10:02.851Z,1.65
2023-04-10T10:12:57.167Z,1.52
2023-04-10T10:15:34.874Z,1.63
2023-04-10T10:18:19.921Z,1.75
2023-04-10T10:20:47.319Z,1.85
2023-04-10T10:23:16.037Z,1.40
2023-04-10T10:25:44.725Z,1.42
2023-04-10T10:28:14.118Z,1.70
2023-04-10T10:30:44.771Z,1.23
2023-04-10T10:33:13.440Z,0.77
2023-04-10T10:35:41.281Z,2.08
2023-04-10T10:38:08.463Z,1.17
2023-04-10T10:40:53.676Z,1.15
2023-04-10T10:43:38.147Z,1.65
2023-04-10T10:46:09.542Z,1.42
2023-04-10T10:48:36.165Z,1.17
2023-04-10T10:51:04.002Z,1.58
2023-04-10T10:53:32.745Z,1.00
2023-04-10T10:56:00.976Z,1.08
2023-04-10T10:58:47.892Z,1.15
2023-04-10T11:01:15.588Z,1.60
2023-04-10T11:03:44.822Z,1.52
2023-04-10T11:06:15.401Z,1.20
2023-04-10T11:08:55.495Z,1.45
2023-04-10T11:11:24.161Z,1.02
2023-04-10T11:13:53.307Z,1.38
2023-04-10T11:16:21.354Z,1.98
2023-04-10T11:18:59.431Z,1.05
2023-04-10T11:21:57.027Z,1.63
2023-04-10T11:24:23.645Z,1.80
2023-04-10T11:26:50.506Z,1.65
2023-04-10T11:29:19.929Z,1.50
2023-04-10T11:31:54.984Z,1.23
2023-04-10T11:34:21.851Z,1.42
2023-04-10T11:36:48.406Z,1.60
2023-04-10T11:39:20.646Z,1.30
2023-04-10T11:41:51.617Z,2.35
2023-04-10T11:44:36.342Z,2.35
2023-04-10T11:47:05.769Z,1.50
2023-04-10T11:49:36.436Z,2.78
2023-04-10T11:52:03.194Z,1.80
2023-04-10T11:54:29.914Z,1.67
2023-04-10T11:57:09.152Z,1.90
2023-04-10T11:59:38.784Z,1.70
2023-04-10T12:02:11.072Z,1.75
2023-04-10T12:04:38.108Z,2.70
2023-04-10T12:07:04.836Z,1.67
2023-04-10T12:09:31.754Z,2.00
2023-04-10T12:12:06.681Z,1.30
2023-04-10T12:14:35.650Z,1.40
2023-04-10T12:17:04.074Z,1.58
2023-04-10T12:19:31.095Z,1.40
2023-04-10T12:21:59.707Z,1.92
2023-04-10T12:24:49.253Z,1.85
2023-04-10T12:27:26.598Z,1.67
2023-04-10T12:29:55.296Z,2.03
2023-04-10T12:32:22.936Z,1.83
2023-04-10T12:34:54.021Z,1.67
2023-04-10T12:37:20.945Z,1.48
2023-04-10T12:39:47.558Z,2.08
2023-04-10T12:42:19.300Z,1.60
2023-04-10T12:44:57.160Z,1.90
2023-04-10T12:47:24.910Z,1.63
2023-04-10T12:50:11.605Z,2.33
2023-04-10T12:52:40.458Z,1.45
2023-04-10T12:55:21.801Z,1.42
2023-04-10T12:57:49.106Z,1.67
2023-04-10T13:00:18.487Z,1.20
2023-04-10T13:02:46.482Z,1.23
2023-04-10T13:05:13.268Z,1.42
2023-04-10T13:07:40.964Z,2.35
2023-04-10T13:10:08.569Z,1.55
2023-04-10T13:12:36.494Z,1.67
2023-04-10T13:15:03.419Z,1.40
2023-04-10T13:17:30.121Z,1.52
2023-04-10T13:19:56.771Z,1.20
2023-04-10T13:22:23.330Z,1.73
2023-04-10T13:24:49.952Z,1.10
2023-04-10T13:27:17.701Z,1.20
2023-04-10T13:29:44.365Z,0.90
2023-04-10T13:32:10.980Z,1.20
2023-04-10T13:34:37.707Z,1.80
2023-04-10T13:37:04.539Z,2.20
2023-04-10T13:39:31.725Z,1.55
2023-04-10T13:41:59.597Z,1.08
2023-04-10T13:44:26.504Z,1.25
2023-04-10T13:46:53.771Z,1.23
2023-04-10T13:49:21.962Z,1.65
2023-04-10T13:51:48.947Z,1.48
2023-04-10T13:54:17.368Z,1.08
2023-04-10T13:56:44.945Z,1.33
2023-04-10T13:59:11.641Z,1.80
2023-04-10T14:01:38.279Z,2.92
2023-04-10T14:04:05.185Z,1.52
2023-04-10T14:06:32.057Z,1.55
2023-04-10T14:08:58.683Z,1.30
2023-04-10T14:11:25.961Z,1.30
2023-04-10T14:13:52.703Z,1.80
2023-04-10T14:16:22.072Z,1.85
2023-04-10T14:18:48.673Z,2.42
2023-04-10T14:21:15.265Z,3.45
2023-04-10T14:23:42.716Z,2.33
2023-04-10T14:26:09.489Z,1.25
2023-04-10T14:28:36.339Z,1.50
2023-04-10T14:31:06.420Z,1.92
2023-04-10T14:33:33.070Z,6.25
2023-04-10T14:35:59.664Z,20.35
2023-04-10T14:38:26.258Z,29.90
2023-04-10T14:40:53.903Z,20.77
2023-04-10T14:43:20.749Z,3.35
2023-04-10T14:45:47.378Z,1.77
2023-04-10T14:48:14.170Z,2.42
2023-04-10T14:50:43.115Z,1.40
2023-04-10T14:53:09.912Z,1.98
2023-04-10T14:55:37.334Z,1.48
2023-04-10T14:58:04.391Z,1.65
2023-04-10T15:00:31.012Z,1.70
2023-04-10T15:02:57.760Z,1.45
2023-04-10T15:05:25.909Z,2.03
2023-04-10T15:07:52.542Z,1.85
2023-04-10T15:10:19.159Z,2.55
2023-04-10T15:12:45.716Z,1.48
2023-04-10T15:15:12.373Z,1.67
2023-04-10T15:17:38.982Z,3.20
2023-04-10T15:20:06.069Z,2.20
2023-04-10T15:22:32.848Z,1.52
2023-04-10T15:25:01.696Z,1.95
2023-04-10T15:27:28.242Z,1.60
2023-04-10T15:29:55.004Z,1.75
2023-04-10T15:32:21.636Z,2.38
2023-04-10T15:34:48.198Z,2.25
2023-04-10T15:37:14.711Z,2.08
2023-04-10T15:39:41.338Z,1.58
2023-04-10T15:42:08.570Z,2.13
2023-04-10T15:44:35.398Z,1.88
2023-04-10T15:47:01.989Z,1.48
2023-04-10T15:49:36.925Z,1.45
2023-04-10T15:52:05.129Z,2.97
2023-04-10T15:54:33.765Z,1.58
2023-04-10T15:57:01.514Z,1.15
2023-04-10T15:59:28.055Z,1.10
2023-04-10T16:01:54.752Z,1.08
2023-04-10T16:04:21.439Z,1.08
2023-04-10T16:06:48.084Z,1.05
2023-04-10T16:09:24.693Z,1.73
2023-04-10T16:11:52.905Z,0.98
2023-04-10T16:14:19.605Z,1.75
2023-04-10T16:16:46.510Z,1.38
2023-04-10T16:19:13.174Z,1.80
2023-04-10T16:21:40.049Z,0.65
2023-04-10T16:24:06.845Z,1.73
2023-04-10T16:26:33.422Z,1.02
2023-04-10T16:29:00.036Z,1.42
2023-04-10T16:31:26.646Z,1.48
2023-04-10T16:33:55.361Z,1.27
2023-04-10T16:36:21.968Z,0.88
2023-04-10T16:38:49.973Z,0.88
2023-04-10T16:41:20.899Z,1.20
2023-04-10T16:43:47.993Z,1.15
2023-04-10T16:46:14.987Z,7.22
2023-04-10T16:48:44.112Z,2.67
2023-04-10T16:51:17.557Z,1.95
2023-04-10T16:53:44.664Z,1.10
2023-04-10T16:56:11.257Z,1.25
2023-04-10T16:58:38.170Z,1.92
2023-04-10T17:01:19.246Z,2.33
2023-04-10T17:03:47.499Z,1.70
2023-04-10T17:06:14.899Z,2.35
2023-04-10T17:08:41.479Z,2.47
2023-04-10T17:11:08.083Z,2.20
2023-04-10T17:13:37.157Z,1.90
2023-04-10T17:16:05.514Z,1.38
2023-04-10T17:18:33.012Z,1.17
2023-04-10T17:20:59.679Z,1.58
2023-04-10T17:23:29.706Z,1.55
2023-04-10T17:25:56.285Z,1.45
2023-04-10T17:28:22.927Z,2.25
2023-04-10T17:30:49.458Z,1.35
2023-04-10T17:33:18.116Z,1.85
2023-04-10T17:35:44.737Z,1.45
2023-04-10T17:38:18.661Z,2.60
2023-04-10T17:40:45.952Z,2.97
2023-04-10T17:43:25.075Z,6.20
2023-04-10T17:45:51.713Z,2.55
2023-04-10T17:48:18.472Z,2.58
2023-04-10T17:50:45.148Z,2.60
2023-04-10T17:53:17.229Z,2.65
2023-04-10T17:55:45.627Z,2.00
2023-04-10T17:58:12.707Z,1.55
2023-04-10T18:00:45.680Z,2.78
2023-04-10T18:03:14.898Z,2.30
2023-04-10T18:05:41.801Z,2.35
2023-04-10T18:08:08.809Z,2.13
2023-04-10T18:10:35.691Z,2.30
2023-04-10T18:13:02.284Z,2.40
2023-04-10T18:15:29.478Z,2.72
2023-04-10T18:17:56.225Z,1.65
2023-04-10T18:20:22.841Z,2.30
2023-04-10T18:22:49.388Z,2.38
2023-04-10T18:25:18.844Z,3.45
2023-04-10T18:28:04.303Z,1.30
2023-04-10T18:30:39.044Z,2.10
2023-04-10T18:33:10.997Z,2.15
2023-04-10T18:35:38.951Z,2.92
2023-04-10T18:38:05.574Z,2.25
2023-04-10T18:40:34.559Z,3.00
2023-04-10T18:43:01.286Z,2.33
2023-04-10T18:45:27.844Z,6.88
2023-04-10T18:47:54.457Z,5.10
2023-04-10T18:50:21.028Z,3.90
2023-04-10T18:52:47.593Z,2.80
2023-04-10T18:55:14.213Z,3.10
2023-04-10T18:57:40.805Z,1.67
2023-04-10T19:00:08.302Z,2.03
2023-04-10T19:02:35.047Z,3.17
2023-04-10T19:05:01.736Z,2.88
2023-04-10T19:07:28.291Z,1.45
2023-04-10T19:09:57.337Z,3.33
2023-04-10T19:12:23.926Z,1.95
2023-04-10T19:14:50.546Z,1.73
2023-04-10T19:17:17.231Z,3.80
2023-04-10T19:19:44.623Z,1.67
2023-04-10T19:22:17.165Z,2.35
2023-04-10T19:24:43.771Z,1.85
2023-04-10T19:27:10.512Z,1.70
2023-04-10T19:29:37.118Z,1.33
2023-04-10T19:32:03.986Z,2.15
2023-04-10T19:34:40.884Z,1.92
2023-04-10T19:37:07.566Z,2.03
2023-04-10T19:39:34.294Z,1.40
2023-04-10T19:42:02.011Z,2.60
2023-04-10T19:44:28.778Z,1.50
2023-04-10T19:46:55.512Z,2.40
2023-04-10T19:49:22.338Z,1.40
2023-04-10T19:51:49.112Z,1.30
2023-04-10T19:54:15.807Z,1.48
2023-04-10T19:56:42.623Z,1.10
2023-04-10T19:59:09.353Z,1.02
2023-04-10T20:01:36.143Z,1.13
2023-04-10T20:04:03.281Z,1.55
2023-04-10T20:06:30.031Z,1.77
2023-04-10T20:08:57.039Z,1.02
2023-04-10T20:11:30.355Z,1.98
2023-04-10T20:13:57.484Z,1.77
2023-04-10T20:16:26.507Z,4.03
2023-04-10T20:18:54.903Z,4.00
2023-04-10T20:21:22.040Z,1.33
2023-04-10T20:23:48.828Z,1.40
2023-04-10T20:26:15.539Z,2.78
2023-04-10T20:28:42.325Z,1.20
2023-04-10T20:31:11.176Z,2.30
2023-04-10T20:33:38.035Z,1.42
2023-04-10T20:36:04.940Z,1.90
2023-04-10T20:38:31.728Z,2.78
2023-04-10T20:40:58.461Z,2.25
2023-04-10T20:43:25.427Z,2.45
2023-04-10T20:45:52.177Z,1.50
2023-04-10T20:48:19.253Z,2.83
2023-04-10T20:50:47.062Z,1.30
2023-04-10T20:53:13.868Z,1.30
2023-04-10T20:55:40.879Z,1.63
2023-04-10T20:58:07.515Z,2.00
2023-04-10T21:00:35.685Z,2.75
2023-04-10T21:03:02.490Z,2.25
2023-04-10T21:05:29.270Z,4.43
2023-04-10T21:07:56.068Z,2.47
2023-04-10T21:10:22.831Z,2.15
2023-04-10T21:12:49.561Z,2.80
2023-04-10T21:15:16.379Z,2.13
2023-04-10T21:17:43.273Z,2.80
2023-04-10T21:20:10.829Z,1.77
2023-04-10T21:22:37.630Z,3.53
2023-04-10T21:25:04.805Z,2.28
2023-04-10T21:27:31.605Z,4.32
2023-04-10T21:29:58.325Z,1.85
2023-04-10T21:32:25.047Z,3.53
2023-04-10T21:34:51.771Z,3.90
2023-04-10T21:37:18.428Z,4.15
2023-04-10T21:39:45.220Z,2.65
2023-04-10T21:42:11.982Z,3.25
2023-04-10T21:44:38.724Z,2.30
2023-04-10T21:47:05.490Z,2.83
2023-04-10T21:49:32.267Z,1.70
2023-04-10T21:51:59.355Z,4.65
2023-04-10T21:54:26.098Z,1.98
2023-04-10T21:56:52.772Z,2.75
2023-04-10T21:59:19.486Z,3.30
2023-04-10T22:01:46.320Z,1.92
2023-04-10T22:04:13.225Z,2.65
2023-04-10T22:06:39.974Z,4.05
2023-04-10T22:09:06.749Z,2.03
2023-04-10T22:11:33.771Z,2.35
2023-04-10T22:14:08.958Z,2.47
2023-04-10T22:16:42.060Z,3.13
2023-04-10T22:19:08.743Z,3.58
2023-04-10T22:21:35.585Z,4.57
2023-04-10T22:24:02.872Z,3.13
2023-04-10T22:26:29.550Z,1.60
2023-04-10T22:28:56.425Z,3.92
2023-04-10T22:31:23.333Z,2.38
2023-04-10T22:33:50.219Z,2.65
2023-04-10T22:36:16.926Z,1.70
2023-04-10T22:38:43.592Z,3.63
2023-04-10T22:41:10.954Z,6.35
2023-04-10T22:43:37.708Z,4.43
2023-04-10T22:46:04.678Z,3.42
2023-04-10T22:48:32.673Z,4.40
2023-04-10T22:50:59.470Z,7.28
2023-04-10T22:53:41.276Z,5.45
2023-04-10T22:58:36.104Z,2.03
2023-04-10T23:01:02.831Z,2.22
2023-04-10T23:03:29.552Z,2.05
2023-04-10T23:05:56.287Z,1.52
2023-04-10T23:08:23.462Z,4.30
2023-04-10T23:10:53.320Z,3.58
2023-04-10T23:13:20.035Z,1.70
2023-04-10T23:15:51.171Z,3.70
2023-04-10T23:18:18.923Z,2.80
2023-04-10T23:20:49.679Z,1.98
2023-04-10T23:23:16.641Z,2.53
2023-04-10T23:25:43.333Z,3.22
2023-04-10T23:28:10.051Z,2.40
2023-04-10T23:30:37.093Z,3.15
2023-04-10T23:33:03.865Z,1.90
2023-04-10T23:35:30.644Z,2.33
2023-04-10T23:37:57.793Z,2.13
2023-04-10T23:40:24.638Z,2.10
2023-04-10T23:42:51.320Z,2.28
2023-04-10T23:45:18.157Z,2.75
2023-04-10T23:47:44.979Z,2.80
2023-04-10T23:50:11.732Z,4.10
2023-04-10T23:52:38.426Z,5.97
2023-04-10T23:55:05.896Z,1.95
2023-04-10T23:57:32.563Z,4.43
2023-04-10T23:59:59.452Z,3.05
